LFGJ/DLE METAR and TAF weather

Enter ICAO airport designator
Station Type Date Time Source
LFGJ METAR 2022/01/29 02:00 UTC NOAA

LFGJ 290200Z AUTO VRB03KT 1100 R05/1300N BR VV/// 00/00 Q1037


Station Type Date Time Source
LFGJ Decoded METAR 2022/01/29 02:00 UTC NOAA

Dole Tavaux, France (LFGJ) 47-02-34N 005-26-06E
Jan 28, 2022 - 09:00 PM EST / 2022.01.29 0200 UTC
Wind: Variable at 3 MPH (3 KT):0
Visibility: less than 1 mile:0
Sky conditions: obscured
Weather: mist
Temperature: 32 F (0 C)
Dew Point: 32 F (0 C)
Relative Humidity: 100%
Pressure (altimeter): 30.62 in. Hg (1037 hPa)
ob: LFGJ 290200Z AUTO VRB03KT 1100 R05/1300N BR VV/// 00/00 Q1037
cycle: 2

Station Type Date Time Source
LFGJ TAF 2020/06/22 09:21 UTC NOAA

TAF LFGJ 220800Z 2209/2221 01008KT 9999 FEW035 BKN053
BECMG 2212/2215 CAVOK

Example: see airport list